Time;durP1;ratioP1;P1;durP2;ratioP2;P2;SDS_P1;SDS_P2;PMS_P1;PMS_P2;Temp;Humidity;BMP_temperature;BMP_pressure;BME280_temperature;BME280_humidity;BME280_pressure;Samples;Min_cycle;Max_cycle;Signal;HPM_P1;HPM_P2
2023/08/23 00:03:00;;;;;;;6.60;2.30;;;;;;;15.27;80.02;100051.55;109127;1258;70361;-63
2023/08/23 00:05:47;;;;;;;8.80;2.20;;;;;;;15.25;79.89;100049.98;109118;1257;72751;-64
2023/08/23 00:08:33;;;;;;;8.50;2.10;;;;;;;15.23;79.97;100049.29;109036;1258;60879;-62
2023/08/23 00:11:20;;;;;;;7.50;2.30;;;;;;;15.21;80.17;100047.36;109108;1257;59951;-64
2023/08/23 00:14:06;;;;;;;8.40;2.30;;;;;;;15.20;80.24;100047.21;109119;1257;72972;-62
2023/08/23 00:16:53;;;;;;;6.80;2.10;;;;;;;15.19;80.19;100050.98;109010;1257;66867;-62
2023/08/23 00:19:39;;;;;;;7.50;2.30;;;;;;;15.16;80.41;100049.98;109098;1257;72696;-62
2023/08/23 00:22:25;;;;;;;8.10;2.20;;;;;;;15.15;80.73;100051.64;109115;1257;57324;-59
2023/08/23 00:25:11;;;;;;;7.40;2.20;;;;;;;15.12;80.69;100056.73;109130;1257;58938;-61
2023/08/23 00:27:58;;;;;;;7.70;2.20;;;;;;;15.10;80.90;100057.13;109022;1257;71666;-61
2023/08/23 00:30:59;;;;;;;7.60;2.10;;;;;;;15.07;81.17;100050.34;109146;1257;67848;-60
2023/08/23 00:33:46;;;;;;;7.10;2.30;;;;;;;15.05;81.51;100053.30;109077;1257;73885;-60
2023/08/23 00:36:33;;;;;;;8.50;2.50;;;;;;;15.03;81.62;100053.35;109073;1257;59592;-60
2023/08/23 00:39:19;;;;;;;9.00;2.40;;;;;;;15.01;81.85;100044.41;109102;1257;60685;-60
2023/08/23 00:42:06;;;;;;;6.70;2.20;;;;;;;14.98;82.19;100044.34;109130;1257;71853;-61
2023/08/23 00:44:52;;;;;;;8.30;2.30;;;;;;;14.94;82.27;100043.35;109102;1257;66843;-60
2023/08/23 00:47:38;;;;;;;8.50;2.40;;;;;;;14.89;82.65;100050.02;109082;1257;72551;-61
2023/08/23 00:50:24;;;;;;;7.70;2.50;;;;;;;14.84;83.05;100049.81;109103;1257;58334;-60
2023/08/23 00:53:13;;;;;;;8.20;2.30;;;;;;;14.81;83.40;100048.70;109091;1257;60109;-60
2023/08/23 00:56:00;;;;;;;7.50;2.40;;;;;;;14.77;83.75;100049.59;109130;1257;73756;-60
2023/08/23 00:58:46;;;;;;;7.70;2.50;;;;;;;14.75;84.37;100054.39;109146;1257;67755;-61
2023/08/23 01:01:32;;;;;;;8.70;2.50;;;;;;;14.73;84.51;100052.17;109107;1257;71099;-61
2023/08/23 01:04:19;;;;;;;7.00;2.50;;;;;;;14.69;84.77;100050.52;109116;1257;58989;-59
2023/08/23 01:07:13;;;;;;;8.20;2.40;;;;;;;14.65;85.24;100050.54;109132;1257;61350;-61
2023/08/23 01:10:16;;;;;;;7.00;2.40;;;;;;;14.62;85.68;100050.58;109028;1257;73757;-60
2023/08/23 01:13:37;;;;;;;7.10;2.90;;;;;;;14.59;85.68;100045.40;109059;1257;68303;-60
2023/08/23 01:16:25;;;;;;;7.00;2.40;;;;;;;14.56;86.27;100052.41;109121;1257;73720;-60
2023/08/23 01:19:46;;;;;;;9.00;2.70;;;;;;;14.53;86.62;100052.31;109085;1257;58700;-60
2023/08/23 01:22:37;;;;;;;7.30;2.70;;;;;;;14.51;87.29;100054.91;108672;1265;59975;-60
2023/08/23 01:25:24;;;;;;;9.00;2.60;;;;;;;14.48;87.42;100049.79;108667;1265;73868;-59
2023/08/23 01:28:10;;;;;;;9.10;2.00;;;;;;;14.45;87.55;100050.06;108637;1265;66894;-61
2023/08/23 01:31:00;;;;;;;7.30;2.40;;;;;;;14.43;88.32;100055.97;108564;1265;72795;-59
2023/08/23 01:34:03;;;;;;;8.10;2.30;;;;;;;14.41;88.77;100061.67;108654;1265;59422;-61
2023/08/23 01:36:53;;;;;;;9.10;2.00;;;;;;;14.39;89.12;100055.65;108494;1265;60323;-60
2023/08/23 01:39:39;;;;;;;7.90;2.40;;;;;;;14.37;89.70;100055.63;108583;1265;73768;-61
2023/08/23 01:42:26;;;;;;;8.70;2.50;;;;;;;14.34;90.12;100059.63;108563;1265;68072;-62
2023/08/23 01:45:12;;;;;;;7.50;2.30;;;;;;;14.31;90.55;100058.17;108566;1265;73526;-62
2023/08/23 01:47:58;;;;;;;7.70;2.30;;;;;;;14.27;91.49;100056.52;108629;1265;59354;-61
2023/08/23 01:50:44;;;;;;;8.10;2.70;;;;;;;14.25;91.97;100056.06;108651;1265;60996;-61
2023/08/23 01:53:30;;;;;;;7.60;2.40;;;;;;;14.24;92.54;100054.20;108624;1265;73791;-60
2023/08/23 01:56:17;;;;;;;6.30;2.10;;;;;;;14.23;92.79;100058.23;108658;1265;65398;-61
2023/08/23 01:59:03;;;;;;;8.60;2.30;;;;;;;14.23;92.96;100059.09;108788;1257;73635;-59
2023/08/23 02:01:49;;;;;;;7.20;2.40;;;;;;;14.23;93.61;100063.23;109091;1257;58842;-61
2023/08/23 02:04:35;;;;;;;7.80;2.30;;;;;;;14.21;94.51;100066.39;109152;1257;58930;-60
2023/08/23 02:07:22;;;;;;;8.70;2.40;;;;;;;14.18;94.66;100067.38;109110;1257;74301;-61
2023/08/23 02:10:08;;;;;;;7.90;2.40;;;;;;;14.17;94.93;100071.41;109058;1257;66447;-61
2023/08/23 02:12:54;;;;;;;8.00;2.60;;;;;;;14.16;95.76;100071.13;109072;1257;73829;-61
2023/08/23 02:15:40;;;;;;;7.00;2.40;;;;;;;14.16;96.32;100067.44;109136;1257;57977;-61
2023/08/23 02:18:27;;;;;;;8.00;3.10;;;;;;;14.16;96.52;100068.80;109139;1257;60401;-60
2023/08/23 02:21:13;;;;;;;7.10;2.30;;;;;;;14.16;97.11;100066.84;109111;1257;73939;-59
2023/08/23 02:23:59;;;;;;;7.20;2.30;;;;;;;14.17;97.52;100063.19;109074;1257;67836;-60
2023/08/23 02:26:46;;;;;;;8.70;2.70;;;;;;;14.20;98.03;100066.11;109052;1257;72445;-59
2023/08/23 02:29:32;;;;;;;6.70;2.30;;;;;;;14.23;99.06;100066.95;109021;1257;60650;-60
2023/08/23 02:32:19;;;;;;;9.00;2.40;;;;;;;14.24;99.14;100066.11;109135;1257;60151;-62
2023/08/23 02:35:07;;;;;;;9.90;2.80;;;;;;;14.25;98.93;100064.58;109118;1257;73800;-59
2023/08/23 02:37:54;;;;;;;10.40;2.90;;;;;;;14.26;98.92;100064.52;109146;1257;67915;-60
2023/08/23 02:40:42;;;;;;;9.20;2.80;;;;;;;14.26;99.48;100066.77;109114;1257;73648;-60
2023/08/23 02:43:28;;;;;;;9.20;2.60;;;;;;;14.26;99.22;100064.52;109031;1258;59562;-59
2023/08/23 02:46:15;;;;;;;9.70;2.70;;;;;;;14.25;99.57;100062.11;109057;1258;60117;-61
2023/08/23 02:49:01;;;;;;;9.30;3.00;;;;;;;14.24;99.75;100069.28;109030;1259;74025;-60
2023/08/23 02:51:47;;;;;;;8.70;2.40;;;;;;;14.25;99.39;100072.50;108933;1258;68782;-60
2023/08/23 02:54:33;;;;;;;7.90;2.60;;;;;;;14.23;99.58;100074.59;109006;1258;72671;-59
2023/08/23 02:57:19;;;;;;;8.50;2.60;;;;;;;14.22;99.62;100079.30;109012;1258;60636;-61
2023/08/23 03:00:07;;;;;;;9.00;2.50;;;;;;;14.21;99.76;100074.95;109004;1258;60379;-61
2023/08/23 03:02:53;;;;;;;6.80;2.60;;;;;;;14.21;99.86;100074.44;109058;1258;73798;-61
2023/08/23 03:05:39;;;;;;;7.30;3.00;;;;;;;14.21;99.61;100063.23;109101;1258;66713;-59
2023/08/23 03:08:26;;;;;;;8.10;2.70;;;;;;;14.19;99.50;100066.08;109005;1257;73750;-61
2023/08/23 03:11:13;;;;;;;9.50;3.20;;;;;;;14.17;99.66;100066.95;109125;1257;59357;-60
2023/08/23 03:13:59;;;;;;;9.80;3.10;;;;;;;14.15;99.59;100068.77;109137;1257;59969;-59
2023/08/23 03:16:45;;;;;;;8.70;2.90;;;;;;;14.14;99.70;100078.68;109052;1257;74102;-60
2023/08/23 03:19:32;;;;;;;7.80;3.00;;;;;;;14.13;99.69;100076.05;109049;1257;68789;-60
2023/08/23 03:22:19;;;;;;;11.10;2.80;;;;;;;14.12;99.48;100076.00;109025;1258;73703;-60
2023/08/23 03:25:05;;;;;;;7.10;2.60;;;;;;;14.10;99.65;100078.42;109074;1257;58545;-62
2023/08/23 03:27:54;;;;;;;9.90;2.90;;;;;;;14.10;99.69;100078.14;109016;1257;61410;-60
2023/08/23 03:30:41;;;;;;;9.80;2.70;;;;;;;14.09;99.56;100077.52;109142;1257;72786;-61
2023/08/23 03:33:29;;;;;;;7.60;2.90;;;;;;;14.07;99.52;100079.11;109041;1257;68875;-60
2023/08/23 03:36:16;;;;;;;9.20;2.80;;;;;;;14.06;99.83;100084.75;108976;1258;71455;-60
2023/08/23 03:39:03;;;;;;;10.20;2.80;;;;;;;14.05;99.89;100081.46;109058;1258;59003;-60
2023/08/23 03:41:49;;;;;;;7.80;2.90;;;;;;;14.04;99.68;100073.66;109091;1257;60138;-60
2023/08/23 03:44:36;;;;;;;8.40;3.50;;;;;;;14.01;99.85;100074.49;109090;1257;72195;-60
2023/08/23 03:47:22;;;;;;;7.70;3.00;;;;;;;13.98;99.85;100069.02;109070;1257;69224;-61
2023/08/23 03:50:09;;;;;;;6.20;2.50;;;;;;;13.96;99.93;100069.39;108996;1260;73440;-60
2023/08/23 03:52:55;;;;;;;10.50;3.30;;;;;;;13.95;99.91;100070.52;109032;1257;59314;-61
2023/08/23 03:55:41;;;;;;;8.60;3.40;;;;;;;13.95;99.87;100079.50;109052;1257;60205;-60
2023/08/23 03:58:27;;;;;;;8.90;3.40;;;;;;;13.92;99.95;100074.74;109126;1257;72973;-61
2023/08/23 04:01:14;;;;;;;8.50;2.90;;;;;;;13.92;99.85;100068.69;109052;1257;68271;-61
2023/08/23 04:04:00;;;;;;;10.30;2.80;;;;;;;13.93;99.98;100071.52;109078;1257;73429;-61
2023/08/23 04:06:47;;;;;;;8.60;3.00;;;;;;;13.93;99.99;100072.38;109091;1257;60569;-61
2023/08/23 04:09:33;;;;;;;8.90;2.70;;;;;;;13.94;100.00;100073.48;109044;1257;60305;-61
2023/08/23 04:12:19;;;;;;;9.80;3.00;;;;;;;13.97;100.00;100069.11;109066;1257;74068;-60
2023/08/23 04:15:06;;;;;;;9.70;3.10;;;;;;;14.00;100.00;100071.38;109161;1257;68774;-61
2023/08/23 04:17:52;;;;;;;8.60;3.00;;;;;;;14.02;100.00;100070.09;109107;1258;73614;-61
2023/08/23 04:20:40;;;;;;;12.10;5.70;;;;;;;14.05;100.00;100072.69;109041;1257;58394;-61
2023/08/23 04:23:28;;;;;;;11.00;3.10;;;;;;;14.06;100.00;100073.01;109089;1257;61306;-61
2023/08/23 04:26:14;;;;;;;7.40;3.10;;;;;;;14.08;100.00;100072.07;109121;1257;72163;-61
2023/08/23 04:29:01;;;;;;;9.30;3.10;;;;;;;14.12;100.00;100071.35;109152;1257;67845;-60
2023/08/23 04:31:47;;;;;;;12.00;3.30;;;;;;;14.16;100.00;100069.41;109060;1258;71955;-60
2023/08/23 04:34:40;;;;;;;9.80;3.40;;;;;;;14.21;100.00;100066.80;109060;1257;59652;-61
2023/08/23 04:37:28;;;;;;;7.90;2.70;;;;;;;14.25;100.00;100065.66;108997;1258;60284;-62
2023/08/23 04:40:15;;;;;;;9.90;3.40;;;;;;;14.31;100.00;100066.02;108987;1257;73742;-62
2023/08/23 04:43:01;;;;;;;10.50;3.40;;;;;;;14.37;100.00;100067.83;109065;1261;68939;-62
2023/08/23 04:45:47;;;;;;;9.60;3.40;;;;;;;14.42;100.00;100069.81;109095;1258;73627;-62
2023/08/23 04:48:34;;;;;;;8.00;2.90;;;;;;;14.47;100.00;100072.20;108997;1257;57913;-62
2023/08/23 04:51:21;;;;;;;8.00;3.20;;;;;;;14.53;100.00;100075.21;109107;1257;58964;-62
2023/08/23 04:54:08;;;;;;;9.80;2.90;;;;;;;14.59;100.00;100072.10;109097;1257;73923;-63
2023/08/23 04:56:54;;;;;;;8.80;3.40;;;;;;;14.70;100.00;100069.96;109069;1257;68886;-61
2023/08/23 04:59:40;;;;;;;8.70;3.00;;;;;;;14.78;100.00;100066.84;108965;1257;73404;-62
2023/08/23 05:02:27;;;;;;;8.10;2.90;;;;;;;14.86;100.00;100061.95;109023;1259;60888;-61
2023/08/23 05:05:15;;;;;;;10.00;3.50;;;;;;;14.95;100.00;100064.84;109058;1258;60167;-61
2023/08/23 05:08:01;;;;;;;9.20;3.30;;;;;;;15.05;100.00;100071.02;109023;1259;71994;-62
2023/08/23 05:10:52;;;;;;;11.50;3.30;;;;;;;15.14;100.00;100073.36;108896;1258;67489;-61
2023/08/23 05:13:39;;;;;;;10.20;3.20;;;;;;;15.24;100.00;100076.48;108909;1259;72794;-65
2023/08/23 05:16:25;;;;;;;9.00;3.30;;;;;;;15.36;100.00;100080.74;108962;1258;59576;-63
2023/08/23 05:19:12;;;;;;;9.60;3.20;;;;;;;15.46;100.00;100079.38;108946;1258;60057;-62
2023/08/23 05:22:00;;;;;;;8.90;3.00;;;;;;;15.58;100.00;100075.71;109008;1257;73848;-62
2023/08/23 05:24:46;;;;;;;10.00;3.10;;;;;;;15.70;100.00;100079.25;109132;1257;67917;-61
2023/08/23 05:27:33;;;;;;;10.00;3.20;;;;;;;15.82;100.00;100090.55;109043;1258;73544;-62
2023/08/23 05:30:20;;;;;;;10.50;2.90;;;;;;;15.96;100.00;100095.45;109077;1259;60545;-60
2023/08/23 05:33:06;;;;;;;8.40;2.90;;;;;;;16.10;99.73;100097.10;109085;1258;59230;-59
2023/08/23 05:35:52;;;;;;;11.60;2.90;;;;;;;16.25;99.01;100097.52;109099;1257;72260;-64
2023/08/23 05:38:39;;;;;;;7.00;2.50;;;;;;;16.42;98.27;100095.66;109090;1258;69016;-62
2023/08/23 05:41:25;;;;;;;7.20;2.40;;;;;;;16.64;97.17;100099.67;109051;1257;72713;-63
2023/08/23 05:44:12;;;;;;;10.00;3.00;;;;;;;16.95;95.90;100107.27;109137;1257;57428;-63
2023/08/23 05:46:59;;;;;;;9.30;2.90;;;;;;;17.41;93.68;100097.48;109012;1257;58716;-63
2023/08/23 05:49:46;;;;;;;8.50;2.50;;;;;;;18.10;91.07;100097.78;109098;1259;72915;-62
2023/08/23 05:52:32;;;;;;;9.80;2.50;;;;;;;19.01;86.58;100095.85;109099;1259;68912;-63
2023/08/23 05:55:18;;;;;;;8.40;2.60;;;;;;;20.02;82.68;100095.27;109067;1258;73601;-63
2023/08/23 05:58:04;;;;;;;8.80;2.40;;;;;;;21.00;77.61;100094.86;109077;1260;57867;-63
2023/08/23 06:00:52;;;;;;;8.00;2.20;;;;;;;21.97;73.45;100082.89;108981;1257;61167;-62
2023/08/23 06:03:38;;;;;;;9.20;2.10;;;;;;;22.83;69.38;100083.36;109122;1258;72988;-62
2023/08/23 06:06:25;;;;;;;8.40;2.30;;;;;;;23.64;66.25;100086.80;109098;1257;68927;-63
2023/08/23 06:09:11;;;;;;;7.20;1.80;;;;;;;24.40;62.58;100084.59;109104;1257;71282;-62
2023/08/23 06:11:57;;;;;;;8.40;1.90;;;;;;;25.08;59.61;100090.48;108985;1257;57309;-63
2023/08/23 06:14:45;;;;;;;8.00;1.70;;;;;;;25.58;56.89;100089.11;109058;1258;60429;-63
2023/08/23 06:17:31;;;;;;;7.30;1.80;;;;;;;25.92;53.52;100087.01;109097;1260;74603;-64
2023/08/23 06:20:17;;;;;;;8.20;1.80;;;;;;;26.36;52.12;100090.19;109071;1257;68784;-64
2023/08/23 06:23:04;;;;;;;6.80;1.60;;;;;;;26.73;50.12;100087.08;109072;1257;72795;-64
2023/08/23 06:25:50;;;;;;;9.20;1.80;;;;;;;27.08;49.95;100086.10;109091;1257;58179;-64
2023/08/23 06:28:36;;;;;;;8.60;1.90;;;;;;;27.44;47.35;100089.56;109087;1257;58729;-63
2023/08/23 06:31:22;;;;;;;7.10;1.60;;;;;;;27.70;46.42;100089.08;109079;1258;71195;-63
2023/08/23 06:34:08;;;;;;;8.20;1.70;;;;;;;28.05;45.75;100090.90;109071;1257;67959;-62
2023/08/23 06:36:54;;;;;;;6.90;1.50;;;;;;;28.51;45.34;100090.20;109046;1257;72454;-63
2023/08/23 06:39:41;;;;;;;7.40;1.30;;;;;;;29.00;44.13;100085.20;109022;1257;57424;-65
2023/08/23 06:42:28;;;;;;;6.60;1.40;;;;;;;29.53;42.81;100083.17;108957;1259;204276;-62
2023/08/23 06:45:15;;;;;;;6.70;1.60;;;;;;;29.86;41.44;100079.27;109107;1257;73699;-63
2023/08/23 06:48:01;;;;;;;7.90;1.80;;;;;;;30.17;40.61;100078.58;109088;1257;67787;-64
2023/08/23 06:50:47;;;;;;;7.70;1.50;;;;;;;30.41;38.80;100071.58;109066;1258;71407;-61
2023/08/23 06:53:33;;;;;;;6.80;1.70;;;;;;;30.64;38.28;100069.84;109076;1257;57617;-63
2023/08/23 06:56:22;;;;;;;7.10;1.80;;;;;;;30.83;37.37;100066.26;109096;1257;59262;-62
2023/08/23 06:59:08;;;;;;;7.90;1.60;;;;;;;31.11;36.72;100065.67;109083;1261;73077;-64
2023/08/23 07:01:54;;;;;;;9.40;1.50;;;;;;;31.33;35.74;100067.41;109084;1257;67594;-62
2023/08/23 07:04:41;;;;;;;7.70;1.70;;;;;;;31.39;35.43;100064.72;109073;1257;72728;-62
2023/08/23 07:07:27;;;;;;;7.20;2.30;;;;;;;31.77;35.14;100062.62;109082;1257;58832;-62
2023/08/23 07:10:13;;;;;;;6.40;1.50;;;;;;;32.19;35.04;100064.87;109091;1258;60130;-66
2023/08/23 07:13:13;;;;;;;7.10;1.10;;;;;;;32.72;33.78;100064.14;108910;1262;73985;-63
2023/08/23 07:16:00;;;;;;;5.70;1.40;;;;;;;32.91;32.28;100067.19;108958;1259;66624;-67
2023/08/23 07:18:46;;;;;;;6.60;1.50;;;;;;;33.08;32.12;100072.73;108888;1259;70655;-63
2023/08/23 07:21:32;;;;;;;7.40;1.10;;;;;;;33.26;31.39;100072.66;109008;1258;57274;-64
2023/08/23 07:24:18;;;;;;;7.90;1.30;;;;;;;33.16;30.81;100075.85;108895;1258;60050;-63
2023/08/23 07:27:05;;;;;;;5.10;1.00;;;;;;;33.12;30.68;100075.34;109029;1259;72937;-62
2023/08/23 07:29:52;;;;;;;5.90;1.10;;;;;;;33.43;29.95;100079.81;109068;1259;67622;-61
2023/08/23 07:32:38;;;;;;;5.30;1.10;;;;;;;33.80;29.05;100078.92;108995;1259;73430;-62
2023/08/23 07:35:24;;;;;;;5.80;1.40;;;;;;;33.69;28.88;100079.94;109002;1262;57761;-62
2023/08/23 07:38:11;;;;;;;5.50;1.10;;;;;;;34.17;29.07;100083.77;109057;1259;61343;-63
2023/08/23 07:41:00;;;;;;;6.70;1.30;;;;;;;34.42;27.48;100075.05;109040;1259;72814;-66
2023/08/23 07:43:46;;;;;;;6.70;1.00;;;;;;;34.65;28.09;100070.70;109003;1259;68939;-63
2023/08/23 07:46:33;;;;;;;5.70;1.20;;;;;;;34.97;27.20;100075.33;109013;1258;73561;-63
2023/08/23 07:49:19;;;;;;;5.70;1.20;;;;;;;35.22;26.45;100077.77;109015;1258;59246;-62
2023/08/23 07:52:05;;;;;;;6.10;1.10;;;;;;;35.37;26.42;100079.77;109056;1257;60529;-64
2023/08/23 07:54:51;;;;;;;6.20;1.20;;;;;;;35.64;25.94;100078.10;109119;1258;72788;-64
2023/08/23 07:57:38;;;;;;;6.20;1.30;;;;;;;35.47;25.41;100088.12;109083;1257;68191;-63
2023/08/23 08:00:24;;;;;;;6.20;1.20;;;;;;;34.73;25.70;100083.98;109071;1257;73948;-62
2023/08/23 08:03:11;;;;;;;7.10;1.00;;;;;;;34.51;26.65;100090.23;109135;1258;57247;-64
2023/08/23 08:05:58;;;;;;;6.40;1.20;;;;;;;34.99;26.43;100084.77;109081;1257;61671;-65
2023/08/23 08:08:47;;;;;;;5.80;1.10;;;;;;;35.25;26.04;100084.23;108997;1257;72803;-64
2023/08/23 08:11:33;;;;;;;8.40;1.30;;;;;;;35.44;25.86;100084.27;109102;1257;68758;-62
2023/08/23 08:14:19;;;;;;;5.50;1.10;;;;;;;35.61;25.54;100087.26;109118;1258;72547;-63
2023/08/23 08:17:05;;;;;;;6.70;1.10;;;;;;;35.77;25.61;100087.83;109059;1257;57654;-62
2023/08/23 08:19:52;;;;;;;6.40;1.20;;;;;;;35.86;24.89;100088.27;109126;1257;61311;-64
2023/08/23 08:22:38;;;;;;;7.70;1.30;;;;;;;35.56;25.39;100092.77;109069;1257;74174;-63
2023/08/23 08:25:25;;;;;;;5.90;1.10;;;;;;;35.78;25.76;100091.77;109114;1257;67755;-61
2023/08/23 08:28:12;;;;;;;5.90;1.10;;;;;;;35.83;25.34;100087.75;109121;1257;72721;-63
2023/08/23 08:30:59;;;;;;;8.30;1.20;;;;;;;36.13;24.76;100094.66;109097;1257;57904;-62
2023/08/23 08:33:46;;;;;;;7.10;1.20;;;;;;;36.11;24.41;100092.63;109071;1258;59997;-64
2023/08/23 08:36:33;;;;;;;5.00;1.10;;;;;;;36.27;24.70;100092.73;109086;1257;73448;-63
2023/08/23 08:39:19;;;;;;;6.60;1.40;;;;;;;36.17;24.10;100092.02;109069;1257;67659;-65
2023/08/23 08:42:07;;;;;;;6.30;1.00;;;;;;;36.21;24.55;100088.23;109070;1257;72716;-61
2023/08/23 08:44:53;;;;;;;8.60;1.30;;;;;;;36.27;24.15;100087.39;109029;1257;57823;-65
2023/08/23 08:47:39;;;;;;;7.40;1.50;;;;;;;36.40;24.33;100090.25;108996;1259;60092;-63
2023/08/23 08:50:32;;;;;;;5.50;1.10;;;;;;;36.63;24.15;100087.96;109013;1259;74059;-63
2023/08/23 08:53:20;;;;;;;5.90;1.50;;;;;;;37.10;23.79;100088.33;109030;1259;68649;-63
2023/08/23 08:56:07;;;;;;;6.70;1.10;;;;;;;37.24;23.19;100092.23;109019;1260;73512;-63
2023/08/23 08:58:55;;;;;;;5.60;1.40;;;;;;;37.18;23.69;100095.46;108990;1258;57508;-63
2023/08/23 09:01:46;;;;;;;6.10;1.20;;;;;;;37.48;23.19;100093.02;108983;1259;58708;-64
2023/08/23 09:04:33;;;;;;;5.70;1.10;;;;;;;37.00;23.54;100086.18;109001;1259;72839;-65
2023/08/23 09:07:19;;;;;;;6.60;1.00;;;;;;;35.73;24.88;100084.96;109014;1259;68930;-64
2023/08/23 09:10:05;;;;;;;7.50;1.40;;;;;;;36.01;24.94;100081.47;109031;1260;74178;-67
2023/08/23 09:12:52;;;;;;;7.30;1.00;;;;;;;36.43;24.27;100085.02;108935;1259;58432;-63
2023/08/23 09:15:38;;;;;;;7.90;1.20;;;;;;;36.48;24.13;100084.02;108974;1260;61370;-63
2023/08/23 09:18:25;;;;;;;8.10;1.10;;;;;;;36.47;23.74;100081.15;108977;1259;73971;-66
2023/08/23 09:21:14;;;;;;;5.70;1.20;;;;;;;36.49;24.04;100082.06;109035;1260;69126;-65
2023/08/23 09:24:01;;;;;;;7.40;0.90;;;;;;;36.75;24.25;100078.90;108942;1260;73839;-62
2023/08/23 09:26:47;;;;;;;6.30;1.20;;;;;;;36.34;24.05;100077.09;108923;1259;58924;-62
2023/08/23 09:29:34;;;;;;;5.50;0.90;;;;;;;35.14;25.20;100071.55;108984;1260;60198;-62
2023/08/23 09:32:20;;;;;;;5.60;1.00;;;;;;;34.81;25.47;100073.20;108960;1260;72750;-62
2023/08/23 09:35:11;;;;;;;6.10;1.20;;;;;;;34.85;24.92;100068.59;108963;1262;69204;-64
2023/08/23 09:37:57;;;;;;;5.40;1.00;;;;;;;34.06;25.95;100075.08;108905;1260;73478;-64
2023/08/23 09:40:44;;;;;;;5.60;1.10;;;;;;;33.51;26.36;100076.25;108966;1260;59017;-65
2023/08/23 09:43:33;;;;;;;6.90;1.00;;;;;;;33.06;27.62;100074.98;108971;1259;61263;-65
2023/08/23 09:46:25;;;;;;;5.30;1.30;;;;;;;32.46;27.83;100071.69;109007;1259;74221;-63
2023/08/23 09:49:16;;;;;;;6.00;1.20;;;;;;;33.05;27.35;100070.66;108995;1260;68467;-67
2023/08/23 09:52:03;;;;;;;5.70;1.00;;;;;;;33.98;26.56;100080.21;108931;1259;72520;-64
2023/08/23 09:55:03;;;;;;;7.20;1.70;;;;;;;34.45;25.61;100079.95;109001;1260;57323;-64
2023/08/23 09:58:02;;;;;;;6.20;1.10;;;;;;;35.07;24.97;100075.05;108975;1262;61371;-65
2023/08/23 10:00:49;;;;;;;6.40;1.00;;;;;;;35.25;24.25;100078.20;108958;1263;72115;-62
2023/08/23 10:03:36;;;;;;;6.90;0.90;;;;;;;34.99;24.27;100072.30;109022;1260;66349;-63
2023/08/23 10:06:23;;;;;;;7.70;1.00;;;;;;;33.32;26.08;100076.45;109010;1260;72569;-63
2023/08/23 10:09:10;;;;;;;5.80;1.00;;;;;;;32.32;27.85;100077.46;108879;1260;58313;-63
2023/08/23 10:11:57;;;;;;;6.00;1.20;;;;;;;31.71;28.90;100074.94;109072;1257;60303;-61
2023/08/23 10:14:48;;;;;;;6.40;1.20;;;;;;;32.58;27.92;100073.26;109070;1258;73917;-63
2023/08/23 10:17:36;;;;;;;7.00;1.20;;;;;;;33.19;27.08;100072.00;109022;1258;68591;-64
2023/08/23 10:20:23;;;;;;;5.50;1.10;;;;;;;33.80;26.09;100074.41;108978;1258;73683;-64
2023/08/23 10:23:15;;;;;;;6.30;1.00;;;;;;;33.53;25.47;100076.80;108977;1261;58815;-63
2023/08/23 10:26:02;;;;;;;5.70;1.00;;;;;;;32.56;26.34;100074.79;108997;1258;61619;-62
2023/08/23 10:28:53;;;;;;;4.90;1.00;;;;;;;32.85;26.58;100071.95;109015;1257;73094;-63
2023/08/23 10:31:54;;;;;;;4.80;1.10;;;;;;;32.99;27.24;100074.39;109005;1257;67922;-63
2023/08/23 10:34:41;;;;;;;5.80;1.40;;;;;;;32.44;27.40;100070.18;109047;1257;72399;-65
2023/08/23 10:37:28;;;;;;;6.70;1.20;;;;;;;32.10;28.08;100068.76;109019;1257;58671;-64
2023/08/23 10:40:19;;;;;;;4.60;1.00;;;;;;;31.69;28.69;100064.45;109082;1257;58904;-71
2023/08/23 10:43:12;;;;;;;7.10;1.20;;;;;;;31.14;29.48;100064.64;109050;1257;73075;-63
2023/08/23 10:46:06;;;;;;;5.40;1.20;;;;;;;30.92;29.91;100061.94;109042;1258;67221;-61
2023/08/23 10:48:53;;;;;;;4.90;1.00;;;;;;;31.27;28.73;100058.93;109005;1257;73548;-61
2023/08/23 10:51:42;;;;;;;6.70;1.20;;;;;;;32.06;27.98;100053.59;109097;1257;59029;-62
2023/08/23 10:54:30;;;;;;;5.50;1.20;;;;;;;32.50;27.43;100059.77;108996;1257;60645;-66
2023/08/23 10:57:17;;;;;;;6.10;1.10;;;;;;;32.10;28.02;100053.25;108996;1257;72939;-62
2023/08/23 11:00:04;;;;;;;7.20;1.10;;;;;;;31.98;29.12;100050.16;109035;1257;68815;-62
2023/08/23 11:02:50;;;;;;;7.30;1.70;;;;;;;31.58;29.41;100053.95;109061;1257;73157;-63
2023/08/23 11:05:37;;;;;;;6.20;1.40;;;;;;;31.25;29.69;100056.16;109063;1257;57616;-61
2023/08/23 11:08:23;;;;;;;10.20;2.40;;;;;;;30.65;30.54;100056.02;109042;1257;60269;-63
2023/08/23 11:11:12;;;;;;;8.70;1.60;;;;;;;30.50;31.17;100054.00;109053;1257;73787;-65
2023/08/23 11:13:58;;;;;;;7.20;1.70;;;;;;;30.98;30.94;100054.60;109029;1257;67642;-63
2023/08/23 11:16:45;;;;;;;8.10;1.50;;;;;;;31.26;30.22;100058.04;109057;1257;71188;-62
2023/08/23 11:19:31;;;;;;;10.40;4.10;;;;;;;31.51;30.36;100057.17;109072;1257;57481;-63
2023/08/23 11:22:18;;;;;;;8.60;1.60;;;;;;;32.47;28.67;100049.33;108949;1257;60271;-65
2023/08/23 11:25:04;;;;;;;4.70;1.00;;;;;;;33.28;27.89;100057.92;109073;1257;73064;-64
2023/08/23 11:27:51;;;;;;;6.30;1.40;;;;;;;33.29;27.94;100060.25;109076;1257;68104;-63
2023/08/23 11:30:38;;;;;;;5.50;1.40;;;;;;;32.87;27.44;100052.83;108991;1257;72644;-63
2023/08/23 11:33:25;;;;;;;8.00;2.40;;;;;;;32.19;28.76;100063.88;108962;1257;57641;-62
2023/08/23 11:36:11;;;;;;;5.80;1.70;;;;;;;31.51;29.62;100064.81;109045;1257;59065;-62
2023/08/23 11:39:04;;;;;;;7.50;2.90;;;;;;;30.86;30.94;100064.15;109093;1257;73150;-63
2023/08/23 11:41:51;;;;;;;7.10;2.10;;;;;;;30.27;31.98;100062.34;109101;1257;66574;-62
2023/08/23 11:44:40;;;;;;;8.10;2.40;;;;;;;29.81;34.28;100064.35;109066;1257;71273;-62
2023/08/23 11:47:26;;;;;;;6.70;2.00;;;;;;;29.21;36.73;100063.96;108988;1257;57420;-63
2023/08/23 11:50:12;;;;;;;6.70;2.00;;;;;;;29.34;37.10;100060.50;109079;1257;58920;-61
2023/08/23 11:53:03;;;;;;;8.00;2.10;;;;;;;29.21;37.46;100058.95;109056;1257;72868;-62
2023/08/23 11:55:50;;;;;;;8.70;1.90;;;;;;;29.13;38.08;100060.58;109005;1258;68165;-62
2023/08/23 11:58:36;;;;;;;8.50;2.10;;;;;;;29.35;37.69;100058.88;109021;1257;72609;-61
2023/08/23 12:01:23;;;;;;;7.70;2.00;;;;;;;29.51;37.17;100058.48;109059;1257;57259;-61
2023/08/23 12:04:11;;;;;;;8.00;1.80;;;;;;;29.50;37.03;100053.02;109081;1257;60087;-63
2023/08/23 12:06:58;;;;;;;8.40;1.90;;;;;;;29.40;37.69;100057.61;108988;1257;72222;-62
2023/08/23 12:09:44;;;;;;;7.20;1.70;;;;;;;28.97;38.74;100056.17;109086;1257;67281;-62
2023/08/23 12:12:31;;;;;;;7.40;1.80;;;;;;;28.52;39.44;100049.73;109123;1257;71612;-63
2023/08/23 12:15:17;;;;;;;6.60;1.80;;;;;;;28.21;40.23;100045.76;109049;1257;57919;-64
2023/08/23 12:18:04;;;;;;;11.90;2.10;;;;;;;27.92;41.21;100041.95;109090;1257;58330;-61
2023/08/23 12:20:50;;;;;;;12.20;2.10;;;;;;;27.54;41.86;100043.86;109035;1257;73748;-61
2023/08/23 12:23:37;;;;;;;6.80;1.70;;;;;;;27.25;42.26;100049.54;109057;1257;68979;-62
2023/08/23 12:26:24;;;;;;;8.10;1.80;;;;;;;27.11;42.71;100045.33;109044;1257;73063;-62
2023/08/23 12:29:10;;;;;;;9.20;2.00;;;;;;;26.97;43.05;100044.77;109030;1257;57383;-63
2023/08/23 12:31:56;;;;;;;10.70;2.00;;;;;;;26.81;43.46;100044.19;109099;1257;60072;-63
2023/08/23 12:34:44;;;;;;;7.30;1.90;;;;;;;26.68;44.29;100052.63;109014;1257;71723;-62
2023/08/23 12:37:30;;;;;;;7.80;1.90;;;;;;;26.50;44.32;100054.73;109056;1257;68659;-64
2023/08/23 12:40:16;;;;;;;13.10;2.50;;;;;;;26.42;45.12;100051.53;108934;1257;73732;-66
2023/08/23 12:43:03;;;;;;;8.70;2.00;;;;;;;26.35;45.63;100051.84;109052;1257;58082;-62
2023/08/23 12:45:49;;;;;;;10.00;2.20;;;;;;;26.36;46.09;100052.42;109088;1257;61828;-63
2023/08/23 12:48:35;;;;;;;8.30;1.90;;;;;;;26.38;45.95;100053.91;109062;1257;74139;-64